createdAt,value
2022-07-28T00:00:56.872Z,79.27
2022-07-28T00:04:04.852Z,79.07
2022-07-28T00:07:12.634Z,79.38
2022-07-28T00:10:20.867Z,79.62
2022-07-28T00:13:28.775Z,79.72
2022-07-28T00:16:36.677Z,79.79
2022-07-28T00:19:44.988Z,79.58
2022-07-28T00:22:52.680Z,79.52
2022-07-28T00:26:00.995Z,79.93
2022-07-28T00:29:11.303Z,79.72
2022-07-28T00:32:18.733Z,80.33
2022-07-28T00:35:31.069Z,80.54
2022-07-28T00:38:29.050Z,80.74
2022-07-28T00:41:36.872Z,80.84
2022-07-28T00:44:45.268Z,80.74
2022-07-28T00:47:53.126Z,80.23
2022-07-28T00:51:01.156Z,80.09
2022-07-28T00:54:09.718Z,79.89
2022-07-28T00:57:17.709Z,79.58
2022-07-28T01:00:25.699Z,79.68
2022-07-28T01:03:33.664Z,79.07
2022-07-28T01:06:42.033Z,79.17
2022-07-28T01:09:49.441Z,78.77
2022-07-28T01:12:58.081Z,78.87
2022-07-28T01:16:06.606Z,78.56
2022-07-28T01:19:14.213Z,78.56
2022-07-28T01:22:22.413Z,78.46
2022-07-28T01:25:29.927Z,78.87
2022-07-28T01:28:37.689Z,78.56
2022-07-28T01:31:46.281Z,79.52
2022-07-28T01:34:53.741Z,80.16
2022-07-28T01:38:02.171Z,80.68
2022-07-28T01:41:10.136Z,81.53
2022-07-28T01:44:18.063Z,81.73
2022-07-28T01:47:25.993Z,82.35
2022-07-28T01:50:33.985Z,82.24
2022-07-28T01:53:41.442Z,81.73
2022-07-28T01:56:49.425Z,81.73
2022-07-28T01:59:57.691Z,82.08
2022-07-28T02:03:05.496Z,83.04
2022-07-28T02:06:13.391Z,83.54
2022-07-28T02:09:21.662Z,83.95
2022-07-28T02:12:29.690Z,84.20
2022-07-28T02:15:37.599Z,84.71
2022-07-28T02:18:45.538Z,83.79
2022-07-28T02:21:53.551Z,83.34
2022-07-28T02:25:01.636Z,83.65
2022-07-28T02:28:09.618Z,83.95
2022-07-28T02:31:17.545Z,84.20
2022-07-28T02:34:27.956Z,84.20
2022-07-28T02:37:35.405Z,84.65
2022-07-28T02:40:43.812Z,85.06
2022-07-28T02:43:52.102Z,85.12
2022-07-28T02:46:59.672Z,85.02
2022-07-28T02:50:07.813Z,84.61
2022-07-28T02:53:16.474Z,84.91
2022-07-28T02:56:24.517Z,85.12
2022-07-28T02:59:32.557Z,83.79
2022-07-28T03:02:40.619Z,84.00
2022-07-28T03:05:48.365Z,84.09
2022-07-28T03:08:56.338Z,84.95
2022-07-28T03:12:04.586Z,86.08
2022-07-28T03:15:12.430Z,86.53
2022-07-28T03:18:20.230Z,87.04
2022-07-28T03:21:28.479Z,87.14
2022-07-28T03:24:35.983Z,87.24
2022-07-28T03:27:44.737Z,86.88
2022-07-28T03:30:52.850Z,87.59
2022-07-28T03:34:00.293Z,87.79
2022-07-28T03:37:08.606Z,87.90
2022-07-28T03:40:16.084Z,88.00
2022-07-28T03:43:24.355Z,88.20
2022-07-28T03:46:32.814Z,88.20
2022-07-28T03:49:40.257Z,87.79
2022-07-28T03:52:48.577Z,87.96
2022-07-28T03:55:57.007Z,87.55
2022-07-28T03:59:04.429Z,87.35
2022-07-28T04:02:12.569Z,87.24
2022-07-28T04:05:20.560Z,87.45
2022-07-28T04:08:28.388Z,87.20
2022-07-28T04:11:36.680Z,87.10
2022-07-28T04:14:44.122Z,86.24
2022-07-28T04:17:52.005Z,85.69
2022-07-28T04:20:59.898Z,85.35
2022-07-28T04:24:08.084Z,84.28
2022-07-28T04:27:15.798Z,83.47
2022-07-28T04:30:23.461Z,83.12
2022-07-28T04:33:31.597Z,82.92
2022-07-28T04:36:38.986Z,82.92
2022-07-28T04:39:46.708Z,82.37
2022-07-28T04:42:54.718Z,82.17
2022-07-28T04:46:02.088Z,82.27
2022-07-28T04:49:09.962Z,82.88
2022-07-28T04:52:17.780Z,82.88
2022-07-28T04:55:25.471Z,82.88
2022-07-28T04:58:33.681Z,83.09
2022-07-28T05:01:41.354Z,82.74
2022-07-28T05:04:49.133Z,82.74
2022-07-28T05:07:57.295Z,82.40
2022-07-28T05:11:05.145Z,82.09
2022-07-28T05:14:13.060Z,81.24
2022-07-28T05:17:21.094Z,80.08
2022-07-28T05:20:29.776Z,79.53
2022-07-28T05:23:37.391Z,79.27
2022-07-28T05:26:45.290Z,79.27
2022-07-28T05:29:53.623Z,79.77
2022-07-28T05:33:01.213Z,80.38
2022-07-28T05:36:09.483Z,79.63
2022-07-28T05:39:17.721Z,78.99
2022-07-28T05:42:25.564Z,78.75
2022-07-28T05:45:33.882Z,79.05
2022-07-28T05:48:41.978Z,78.30
2022-07-28T05:51:49.880Z,77.29
2022-07-28T05:54:58.386Z,77.15
2022-07-28T05:58:06.395Z,76.44
2022-07-28T06:01:14.483Z,75.32
2022-07-28T06:04:26.829Z,75.73
2022-07-28T06:07:43.462Z,76.61
2022-07-28T06:10:30.229Z,75.59
2022-07-28T06:13:38.198Z,74.00
2022-07-28T06:16:46.182Z,73.36
2022-07-28T06:19:54.278Z,71.60
2022-07-28T06:23:02.204Z,70.69
2022-07-28T06:26:10.695Z,70.18
2022-07-28T06:29:18.945Z,70.39
2022-07-28T06:32:27.516Z,68.97
2022-07-28T06:35:45.035Z,69.44
2022-07-28T06:38:40.618Z,68.94
2022-07-28T06:41:49.082Z,67.93
2022-07-28T06:44:59.691Z,68.87
2022-07-28T06:47:56.983Z,69.48
2022-07-28T06:51:05.092Z,69.48
2022-07-28T06:54:13.467Z,69.68
2022-07-28T06:57:21.715Z,69.24
2022-07-28T07:00:30.381Z,68.84
2022-07-28T07:03:38.392Z,67.62
2022-07-28T07:06:46.067Z,67.72
2022-07-28T07:09:54.088Z,67.93
2022-07-28T07:13:02.397Z,66.47
2022-07-28T07:16:10.870Z,65.73
2022-07-28T07:19:18.853Z,64.83
2022-07-28T07:22:26.923Z,64.49
2022-07-28T07:25:34.723Z,63.25
2022-07-28T07:28:43.450Z,61.71
2022-07-28T07:31:52.865Z,58.72
2022-07-28T07:35:00.756Z,60.26
2022-07-28T07:38:08.749Z,59.42
2022-07-28T07:41:16.817Z,59.12
2022-07-28T07:44:24.527Z,58.32
2022-07-28T07:47:33.199Z,58.59
2022-07-28T07:50:41.021Z,57.71
2022-07-28T07:53:49.561Z,58.65
2022-07-28T07:56:57.931Z,59.12
2022-07-28T08:00:05.674Z,58.32
2022-07-28T08:03:14.454Z,58.16
2022-07-28T08:06:26.215Z,57.23
2022-07-28T08:09:24.023Z,57.23
2022-07-28T08:12:32.266Z,56.20
2022-07-28T08:15:40.267Z,55.76
2022-07-28T08:18:48.467Z,54.96
2022-07-28T08:21:56.549Z,55.06
2022-07-28T08:25:04.882Z,53.65
2022-07-28T08:28:12.941Z,54.05
2022-07-28T08:31:20.993Z,53.52
2022-07-28T08:34:33.278Z,53.83
2022-07-28T08:37:30.985Z,52.11
2022-07-28T08:40:39.215Z,53.09
2022-07-28T08:43:47.794Z,52.29
2022-07-28T08:46:55.511Z,52.47
2022-07-28T08:50:03.966Z,52.06
2022-07-28T08:53:11.935Z,53.07
2022-07-28T08:56:19.669Z,52.26
2022-07-28T08:59:28.192Z,51.04
2022-07-28T09:02:36.261Z,51.84
2022-07-28T09:05:43.824Z,51.14
2022-07-28T09:08:52.322Z,51.31
2022-07-28T09:12:00.715Z,51.11
2022-07-28T09:15:08.416Z,51.66
2022-07-28T09:18:16.798Z,52.57
2022-07-28T09:21:24.706Z,51.51
2022-07-28T09:24:32.898Z,50.99
2022-07-28T09:27:40.991Z,50.59
2022-07-28T09:30:54.365Z,50.59
2022-07-28T09:33:52.115Z,50.38
2022-07-28T09:37:00.321Z,50.99
2022-07-28T09:40:07.713Z,50.79
2022-07-28T09:43:15.355Z,49.96
2022-07-28T09:46:23.377Z,50.26
2022-07-28T09:49:31.217Z,49.54
2022-07-28T09:52:39.231Z,49.84
2022-07-28T09:55:47.057Z,49.43
2022-07-28T09:58:54.900Z,50.01
2022-07-28T10:02:03.242Z,49.11
2022-07-28T10:05:11.014Z,49.08
2022-07-28T10:08:18.882Z,49.54
2022-07-28T10:11:26.594Z,50.94
2022-07-28T10:14:34.771Z,50.01
2022-07-28T10:17:42.524Z,48.96
2022-07-28T10:20:50.318Z,48.69
2022-07-28T10:23:58.458Z,49.19
2022-07-28T10:27:06.350Z,49.21
2022-07-28T10:30:14.111Z,49.96
2022-07-28T10:33:22.423Z,48.19
2022-07-28T10:36:29.773Z,47.35
2022-07-28T10:39:37.914Z,45.87
2022-07-28T10:42:46.215Z,47.42
2022-07-28T10:46:05.651Z,46.69
2022-07-28T10:49:00.008Z,46.07
2022-07-28T10:52:02.358Z,45.65
2022-07-28T10:55:03.182Z,45.45
2022-07-28T10:58:12.382Z,44.93
2022-07-28T11:01:47.263Z,44.43
2022-07-28T11:04:29.236Z,45.33
2022-07-28T11:07:26.512Z,45.15
2022-07-28T11:10:34.225Z,46.13
2022-07-28T11:13:42.415Z,45.40
2022-07-28T11:16:50.435Z,44.46
2022-07-28T11:23:03.619Z,43.99
2022-07-28T11:26:04.732Z,44.46
2022-07-28T11:29:12.510Z,42.63
2022-07-28T11:32:20.305Z,43.65
2022-07-28T11:35:24.387Z,43.03
2022-07-28T11:38:32.158Z,42.65
2022-07-28T11:41:40.144Z,42.53
2022-07-28T11:44:48.800Z,42.93
2022-07-28T11:47:56.809Z,42.63
2022-07-28T11:51:04.643Z,43.55
2022-07-28T11:54:12.921Z,41.69
2022-07-28T11:57:20.861Z,40.58
2022-07-28T12:00:28.664Z,40.88
2022-07-28T12:03:38.557Z,41.09
2022-07-28T12:06:41.566Z,42.09
2022-07-28T12:09:49.838Z,40.68
2022-07-28T12:12:57.271Z,39.76
2022-07-28T12:16:04.969Z,39.83
2022-07-28T12:19:13.333Z,39.11
2022-07-28T12:22:20.712Z,38.62
2022-07-28T12:25:30.897Z,38.79
2022-07-28T12:28:39.238Z,38.17
2022-07-28T12:31:46.700Z,37.43
2022-07-28T12:34:55.584Z,35.95
2022-07-28T12:38:03.389Z,36.76
2022-07-28T12:41:11.192Z,37.07
2022-07-28T12:44:19.311Z,37.05
2022-07-28T12:47:26.803Z,35.69
2022-07-28T12:50:34.604Z,37.41
2022-07-28T12:53:42.246Z,37.70
2022-07-28T12:56:50.038Z,37.51
2022-07-28T12:59:57.938Z,36.90
2022-07-28T13:03:05.700Z,38.60
2022-07-28T13:06:13.859Z,38.32
2022-07-28T13:09:21.222Z,38.14
2022-07-28T13:12:31.405Z,38.02
2022-07-28T13:15:39.599Z,38.24
2022-07-28T13:18:47.015Z,38.52
2022-07-28T13:21:59.675Z,38.30
2022-07-28T13:24:59.087Z,37.59
2022-07-28T13:28:06.500Z,38.20
2022-07-28T13:31:14.746Z,37.07
2022-07-28T13:34:22.501Z,35.91
2022-07-28T13:37:30.214Z,34.45
2022-07-28T13:40:38.214Z,35.77
2022-07-28T13:43:48.224Z,37.11
2022-07-28T13:46:56.067Z,38.32
2022-07-28T13:50:04.667Z,36.79
2022-07-28T13:53:12.339Z,37.62
2022-07-28T13:56:20.088Z,37.23
2022-07-28T13:59:28.052Z,37.34
2022-07-28T14:02:36.455Z,37.01
2022-07-28T14:05:44.522Z,36.40
2022-07-28T14:08:52.817Z,36.07
2022-07-28T14:12:01.142Z,36.40
2022-07-28T14:15:10.519Z,36.33
2022-07-28T14:18:18.320Z,37.04
2022-07-28T14:21:26.513Z,37.84
2022-07-28T14:24:33.941Z,36.33
2022-07-28T14:27:42.043Z,34.89
2022-07-28T14:30:50.177Z,33.16
2022-07-28T14:33:57.646Z,32.73
2022-07-28T14:37:08.868Z,32.24
2022-07-28T14:40:06.509Z,31.53
2022-07-28T14:43:14.348Z,32.04
2022-07-28T14:46:22.603Z,32.34
2022-07-28T14:49:26.258Z,34.23
2022-07-28T14:52:34.177Z,33.73
2022-07-28T14:55:42.324Z,33.92
2022-07-28T14:58:49.648Z,33.62
2022-07-28T15:01:57.973Z,34.25
2022-07-28T15:05:05.879Z,34.03
2022-07-28T15:08:13.699Z,33.33
2022-07-28T15:11:22.141Z,34.64
2022-07-28T15:14:30.560Z,35.46
2022-07-28T15:17:38.332Z,36.08
2022-07-28T15:20:46.082Z,35.98
2022-07-28T15:23:53.695Z,34.84
2022-07-28T15:27:01.404Z,34.63
2022-07-28T15:30:10.566Z,33.42
2022-07-28T15:33:21.243Z,33.94
2022-07-28T15:36:28.681Z,34.76
2022-07-28T15:39:36.264Z,35.27
2022-07-28T15:42:44.273Z,35.39
2022-07-28T15:45:51.737Z,36.00
2022-07-28T15:48:59.669Z,35.49
2022-07-28T15:52:07.896Z,35.37
2022-07-28T15:55:15.781Z,34.55
2022-07-28T15:58:23.602Z,34.22
2022-07-28T16:01:31.382Z,33.34
2022-07-28T16:04:49.007Z,33.75
2022-07-28T16:07:45.239Z,34.13
2022-07-28T16:10:53.156Z,33.13
2022-07-28T16:14:02.356Z,33.94
2022-07-28T16:17:10.423Z,34.05
2022-07-28T16:20:18.150Z,33.97
2022-07-28T16:23:26.004Z,34.86
2022-07-28T16:26:34.260Z,35.09
2022-07-28T16:29:41.702Z,34.88
2022-07-28T16:32:49.924Z,35.16
2022-07-28T16:35:58.326Z,35.25
2022-07-28T16:39:05.719Z,35.06
2022-07-28T16:42:14.471Z,35.65
2022-07-28T16:45:22.291Z,35.97
2022-07-28T16:48:30.095Z,35.07
2022-07-28T16:51:37.963Z,35.17
2022-07-28T16:54:47.736Z,35.47
2022-07-28T16:57:55.475Z,34.88
2022-07-28T17:01:03.116Z,35.80
2022-07-28T17:04:11.040Z,37.03
2022-07-28T17:07:19.447Z,37.03
2022-07-28T17:10:27.825Z,36.33
2022-07-28T17:13:35.692Z,36.43
2022-07-28T17:16:43.659Z,37.15
2022-07-28T17:19:51.375Z,37.76
2022-07-28T17:22:59.675Z,38.28
2022-07-28T17:29:12.798Z,38.29
2022-07-28T17:32:21.300Z,38.89
2022-07-28T17:35:34.579Z,38.49
2022-07-28T17:38:33.400Z,38.81
2022-07-28T17:41:40.920Z,39.11
2022-07-28T17:44:49.223Z,39.01
2022-07-28T17:47:56.978Z,39.23
2022-07-28T17:51:05.266Z,39.32
2022-07-28T17:54:12.975Z,39.42
2022-07-28T17:57:21.949Z,40.24
2022-07-28T18:00:31.920Z,40.86
2022-07-28T18:03:59.563Z,41.16
2022-07-28T18:06:44.881Z,41.75
2022-07-28T18:09:53.063Z,42.07
2022-07-28T18:13:01.074Z,42.89
2022-07-28T18:16:09.953Z,42.79
2022-07-28T18:19:17.634Z,42.61
2022-07-28T18:22:25.393Z,42.32
2022-07-28T18:25:33.241Z,43.51
2022-07-28T18:28:41.502Z,43.43
2022-07-28T18:31:49.988Z,43.63
2022-07-28T18:34:58.663Z,45.03
2022-07-28T18:38:06.473Z,45.95
2022-07-28T18:41:14.196Z,45.87
2022-07-28T18:44:22.370Z,45.47
2022-07-28T18:47:30.147Z,45.89
2022-07-28T18:50:40.894Z,46.59
2022-07-28T18:53:38.162Z,47.30
2022-07-28T18:56:46.370Z,47.31
2022-07-28T18:59:54.234Z,47.61
2022-07-28T19:03:02.788Z,47.34
2022-07-28T19:06:10.934Z,48.64
2022-07-28T19:09:18.382Z,48.46
2022-07-28T19:12:26.606Z,48.76
2022-07-28T19:15:34.932Z,50.99
2022-07-28T19:18:42.275Z,51.29
2022-07-28T19:21:50.610Z,50.81
2022-07-28T19:24:58.294Z,51.44
2022-07-28T19:28:06.003Z,51.26
2022-07-28T19:31:14.142Z,52.67
2022-07-28T19:34:21.844Z,52.47
2022-07-28T19:37:29.855Z,52.39
2022-07-28T19:40:37.306Z,51.79
2022-07-28T19:43:45.326Z,52.09
2022-07-28T19:46:52.891Z,53.50
2022-07-28T19:50:00.915Z,53.32
2022-07-28T19:53:14.798Z,52.82
2022-07-28T19:56:11.982Z,53.34
2022-07-28T19:59:20.334Z,53.34
2022-07-28T20:02:28.860Z,53.55
2022-07-28T20:05:36.395Z,53.67
2022-07-28T20:08:44.806Z,53.88
2022-07-28T20:11:53.180Z,54.71
2022-07-28T20:15:01.241Z,55.00
2022-07-28T20:18:09.559Z,55.13
2022-07-28T20:21:17.550Z,55.33
2022-07-28T20:24:25.518Z,55.54
2022-07-28T20:27:40.574Z,55.83
2022-07-28T20:30:37.858Z,55.83
2022-07-28T20:33:46.360Z,55.63
2022-07-28T20:36:54.774Z,55.74
2022-07-28T20:40:02.113Z,55.96
2022-07-28T20:43:10.598Z,55.87
2022-07-28T20:46:18.626Z,56.57
2022-07-28T20:49:26.145Z,56.60
2022-07-28T20:52:34.372Z,56.29
2022-07-28T20:55:42.263Z,58.03
2022-07-28T20:58:50.214Z,56.92
2022-07-28T21:01:58.355Z,57.53
2022-07-28T21:05:06.163Z,57.35
2022-07-28T21:08:16.000Z,58.06
2022-07-28T21:11:24.818Z,58.56
2022-07-28T21:14:32.306Z,59.07
2022-07-28T21:17:40.248Z,57.89
2022-07-28T21:20:48.321Z,58.59
2022-07-28T21:23:56.386Z,58.39
2022-07-28T21:27:04.695Z,59.00
2022-07-28T21:30:12.563Z,58.32
2022-07-28T21:33:22.828Z,58.82
2022-07-28T21:36:20.144Z,58.42
2022-07-28T21:39:28.044Z,57.68
2022-07-28T21:42:35.853Z,58.22
2022-07-28T21:45:43.918Z,58.82
2022-07-28T21:48:51.923Z,57.91
2022-07-28T21:51:59.681Z,57.61
2022-07-28T21:55:07.430Z,57.91
2022-07-28T21:58:15.702Z,58.12
2022-07-28T22:01:23.623Z,59.33
2022-07-28T22:04:31.723Z,60.16
2022-07-28T22:07:39.979Z,60.69
2022-07-28T22:10:47.849Z,61.53
2022-07-28T22:13:55.408Z,62.67
2022-07-28T22:17:03.871Z,63.31
2022-07-28T22:20:11.277Z,63.92
2022-07-28T22:23:28.317Z,63.51
2022-07-28T22:26:24.749Z,63.81
2022-07-28T22:29:32.585Z,62.73
2022-07-28T22:32:40.351Z,63.44
2022-07-28T22:35:48.732Z,64.86
2022-07-28T22:38:56.641Z,64.58
2022-07-28T22:42:04.635Z,65.09
2022-07-28T22:45:13.024Z,64.89
2022-07-28T22:48:20.414Z,64.25
2022-07-28T22:51:28.245Z,64.55
2022-07-28T22:54:35.928Z,64.76
2022-07-28T22:57:43.628Z,64.48
2022-07-28T23:00:51.972Z,64.48
2022-07-28T23:03:59.881Z,64.35
2022-07-28T23:07:09.550Z,64.48
2022-07-28T23:10:09.735Z,64.28
2022-07-28T23:13:17.436Z,64.28
2022-07-28T23:16:25.274Z,64.99
2022-07-28T23:19:33.130Z,64.04
2022-07-28T23:22:41.370Z,64.69
2022-07-28T23:25:49.268Z,65.09
2022-07-28T23:28:56.728Z,65.53
2022-07-28T23:32:05.167Z,64.92
2022-07-28T23:35:12.930Z,65.73
2022-07-28T23:38:20.720Z,66.54
2022-07-28T23:41:28.962Z,66.64
2022-07-28T23:44:36.812Z,66.24
2022-07-28T23:47:44.691Z,67.25
2022-07-28T23:50:52.834Z,66.84
2022-07-28T23:54:00.392Z,66.44
2022-07-28T23:57:08.638Z,66.13
